createdAt,value
2022-10-05T00:01:47.022Z,2.07
2022-10-05T00:04:19.513Z,1.63
2022-10-05T00:06:51.959Z,1.87
2022-10-05T00:09:21.730Z,1.60
2022-10-05T00:11:50.010Z,1.97
2022-10-05T00:14:37.073Z,1.87
2022-10-05T00:17:06.033Z,1.70
2022-10-05T00:19:40.199Z,1.80
2022-10-05T00:22:28.275Z,1.80
2022-10-05T00:25:00.838Z,1.80
2022-10-05T00:27:34.047Z,1.80
2022-10-05T00:30:08.841Z,1.73
2022-10-05T00:32:36.745Z,1.80
2022-10-05T00:35:04.739Z,1.83
2022-10-05T00:37:32.600Z,1.93
2022-10-05T00:40:00.485Z,1.80
2022-10-05T00:42:37.781Z,1.80
2022-10-05T00:45:09.313Z,1.80
2022-10-05T00:47:43.226Z,1.90
2022-10-05T00:50:11.215Z,1.67
2022-10-05T00:52:51.242Z,1.80
2022-10-05T00:55:32.182Z,1.90
2022-10-05T00:58:02.782Z,1.90
2022-10-05T01:00:32.009Z,1.70
2022-10-05T01:03:05.648Z,1.83
2022-10-05T01:05:52.115Z,2.03
2022-10-05T01:08:26.789Z,1.60
2022-10-05T01:11:06.933Z,1.77
2022-10-05T01:13:41.064Z,1.77
2022-10-05T01:16:16.509Z,1.80
2022-10-05T01:18:53.837Z,1.90
2022-10-05T01:21:22.969Z,1.50
2022-10-05T01:24:08.877Z,1.90
2022-10-05T01:26:57.075Z,1.80
2022-10-05T01:29:24.918Z,1.90
2022-10-05T01:32:11.575Z,1.83
2022-10-05T01:34:42.113Z,1.90
2022-10-05T01:37:16.313Z,2.00
2022-10-05T01:40:02.974Z,1.80
2022-10-05T01:42:49.363Z,1.77
2022-10-05T01:45:20.039Z,1.70
2022-10-05T01:47:50.954Z,1.80
2022-10-05T01:50:21.822Z,1.73
2022-10-05T01:53:05.659Z,1.80
2022-10-05T01:55:40.604Z,1.80
2022-10-05T01:58:12.708Z,2.00
2022-10-05T02:00:53.897Z,1.77
2022-10-05T02:03:26.296Z,1.90
2022-10-05T02:05:57.493Z,1.70
2022-10-05T02:08:36.983Z,1.80
2022-10-05T02:11:07.325Z,1.80
2022-10-05T02:13:38.893Z,1.90
2022-10-05T02:16:15.237Z,1.83
2022-10-05T02:18:48.013Z,1.60
2022-10-05T02:21:16.008Z,1.90
2022-10-05T02:23:45.774Z,1.97
2022-10-05T02:26:14.059Z,2.00
2022-10-05T02:28:42.602Z,1.70
2022-10-05T02:31:22.764Z,1.93
2022-10-05T02:33:50.825Z,1.77
2022-10-05T02:36:20.440Z,1.80
2022-10-05T02:39:03.724Z,1.87
2022-10-05T02:41:43.322Z,1.90
2022-10-05T02:44:20.833Z,2.10
2022-10-05T02:46:57.207Z,2.00
2022-10-05T02:49:45.527Z,1.90
2022-10-05T02:52:19.594Z,2.27
2022-10-05T02:54:50.256Z,2.20
2022-10-05T02:57:56.804Z,2.30
2022-10-05T03:00:27.196Z,2.03
2022-10-05T03:03:07.157Z,2.33
2022-10-05T03:05:38.250Z,2.57
2022-10-05T03:08:16.391Z,2.37
2022-10-05T03:10:54.351Z,2.20
2022-10-05T03:13:29.266Z,2.70
2022-10-05T03:16:03.832Z,2.50
2022-10-05T03:18:37.738Z,2.30
2022-10-05T03:21:19.478Z,2.53
2022-10-05T03:23:51.402Z,2.67
2022-10-05T03:26:26.463Z,2.47
2022-10-05T03:29:08.031Z,2.37
2022-10-05T03:31:54.992Z,2.47
2022-10-05T03:34:30.707Z,2.13
2022-10-05T03:37:24.730Z,2.40
2022-10-05T03:40:02.057Z,2.30
2022-10-05T03:42:30.360Z,2.90
2022-10-05T03:45:09.282Z,2.37
2022-10-05T03:48:01.592Z,2.17
2022-10-05T03:50:42.755Z,2.40
2022-10-05T03:53:19.496Z,2.37
2022-10-05T03:55:49.086Z,2.27
2022-10-05T03:58:33.830Z,2.30
2022-10-05T04:01:07.533Z,2.33
2022-10-05T04:03:39.233Z,2.20
2022-10-05T04:06:16.036Z,2.00
2022-10-05T04:08:48.492Z,1.90
2022-10-05T04:11:27.981Z,2.10
2022-10-05T04:14:00.247Z,2.30
2022-10-05T04:16:31.249Z,2.30
2022-10-05T04:19:12.392Z,2.10
2022-10-05T04:21:53.169Z,2.37
2022-10-05T04:24:44.913Z,2.13
2022-10-05T04:27:22.461Z,2.23
2022-10-05T04:29:55.293Z,2.30
2022-10-05T04:32:38.520Z,2.47
2022-10-05T04:35:17.493Z,2.50
2022-10-05T04:38:03.702Z,2.50
2022-10-05T04:40:47.130Z,2.63
2022-10-05T04:43:30.673Z,2.63
2022-10-05T04:46:01.686Z,3.07
2022-10-05T04:48:29.520Z,2.80
2022-10-05T04:51:12.780Z,2.50
2022-10-05T04:53:46.462Z,2.70
2022-10-05T04:56:23.510Z,2.70
2022-10-05T04:59:10.833Z,2.50
2022-10-05T05:01:44.886Z,2.50
2022-10-05T05:04:14.576Z,2.50
2022-10-05T05:06:46.285Z,2.50
2022-10-05T05:09:23.643Z,2.50
2022-10-05T05:11:54.643Z,2.30
2022-10-05T05:14:29.262Z,2.43
2022-10-05T05:17:00.228Z,2.50
2022-10-05T05:19:31.737Z,2.40
2022-10-05T05:22:06.275Z,2.40
2022-10-05T05:24:55.818Z,2.40
2022-10-05T05:27:44.181Z,2.47
2022-10-05T05:30:20.727Z,2.60
2022-10-05T05:32:49.048Z,2.30
2022-10-05T05:35:26.047Z,2.50
2022-10-05T05:38:01.372Z,2.33
2022-10-05T05:40:33.174Z,2.70
2022-10-05T05:43:08.237Z,2.30
2022-10-05T05:45:36.349Z,2.40
2022-10-05T05:48:06.601Z,2.73
2022-10-05T05:50:43.829Z,2.43
2022-10-05T05:53:30.973Z,2.60
2022-10-05T05:56:07.207Z,2.70
2022-10-05T05:58:40.713Z,2.80
2022-10-05T06:01:32.250Z,2.77
2022-10-05T06:04:06.331Z,2.57
2022-10-05T06:06:37.148Z,2.90
2022-10-05T06:09:07.711Z,2.80
2022-10-05T06:12:08.691Z,2.53
2022-10-05T06:14:41.274Z,2.70
2022-10-05T06:17:15.060Z,2.40
2022-10-05T06:19:44.218Z,2.87
2022-10-05T06:22:33.168Z,2.90
2022-10-05T06:25:13.422Z,2.90
2022-10-05T06:28:02.910Z,2.67
2022-10-05T06:30:38.903Z,2.90
2022-10-05T06:33:23.904Z,2.97
2022-10-05T06:36:04.301Z,3.07
2022-10-05T06:38:35.764Z,3.03
2022-10-05T06:41:06.818Z,2.53
2022-10-05T06:43:45.270Z,2.93
2022-10-05T06:46:19.693Z,3.17
2022-10-05T06:49:22.570Z,2.70
2022-10-05T06:52:15.195Z,4.20
2022-10-05T06:54:49.946Z,3.60
2022-10-05T06:57:38.481Z,3.30
2022-10-05T07:00:16.652Z,3.67
2022-10-05T07:03:03.434Z,3.20
2022-10-05T07:05:38.523Z,3.80
2022-10-05T07:08:25.247Z,3.33
2022-10-05T07:11:11.855Z,3.43
2022-10-05T07:13:47.454Z,3.13
2022-10-05T07:16:27.652Z,3.63
2022-10-05T07:18:59.648Z,3.07
2022-10-05T07:21:30.732Z,3.30
2022-10-05T07:24:05.834Z,3.43
2022-10-05T07:26:37.055Z,3.57
2022-10-05T07:29:08.411Z,3.53
2022-10-05T07:31:52.516Z,3.60
2022-10-05T07:34:23.724Z,4.00
2022-10-05T07:37:20.053Z,3.23
2022-10-05T07:40:01.384Z,3.47
2022-10-05T07:42:50.493Z,3.23
2022-10-05T07:45:29.885Z,3.23
2022-10-05T07:48:19.948Z,3.60
2022-10-05T07:51:00.844Z,3.67
2022-10-05T07:53:36.376Z,3.37
2022-10-05T07:56:16.374Z,4.00
2022-10-05T07:58:54.481Z,3.97
2022-10-05T08:01:39.222Z,3.73
2022-10-05T08:04:16.241Z,3.80
2022-10-05T08:06:53.022Z,3.67
2022-10-05T08:09:30.186Z,3.70
2022-10-05T08:12:16.754Z,3.87
2022-10-05T08:14:54.110Z,4.20
2022-10-05T08:17:26.699Z,4.07
2022-10-05T08:20:01.254Z,3.77
2022-10-05T08:22:36.247Z,4.20
2022-10-05T08:25:06.211Z,3.90
2022-10-05T08:27:44.506Z,4.10
2022-10-05T08:30:13.508Z,4.20
2022-10-05T08:32:50.700Z,4.00
2022-10-05T08:35:28.293Z,4.10
2022-10-05T08:37:57.245Z,4.00
2022-10-05T08:40:43.663Z,4.20
2022-10-05T08:43:37.580Z,4.17
2022-10-05T08:46:24.069Z,4.13
2022-10-05T08:49:04.936Z,4.57
2022-10-05T08:51:38.756Z,3.60
2022-10-05T08:54:21.851Z,3.83
2022-10-05T08:56:56.702Z,3.73
2022-10-05T08:59:43.312Z,3.90
2022-10-05T09:02:33.073Z,3.80
2022-10-05T09:05:19.421Z,3.87
2022-10-05T09:07:59.717Z,3.43
2022-10-05T09:10:34.873Z,3.60
2022-10-05T09:13:11.955Z,3.80
2022-10-05T09:15:48.682Z,4.13
2022-10-05T09:18:19.798Z,3.80
2022-10-05T09:20:55.503Z,4.13
2022-10-05T09:23:26.635Z,4.37
2022-10-05T09:25:55.175Z,4.00
2022-10-05T09:28:26.273Z,4.07
2022-10-05T09:30:57.421Z,3.67
2022-10-05T09:33:31.378Z,3.90
2022-10-05T09:36:18.301Z,4.10
2022-10-05T09:38:51.129Z,3.53
2022-10-05T09:41:37.571Z,3.67
2022-10-05T09:44:19.031Z,3.90
2022-10-05T09:47:05.248Z,4.20
2022-10-05T09:49:59.227Z,3.90
2022-10-05T09:52:45.801Z,4.00
2022-10-05T09:55:32.307Z,3.43
2022-10-05T09:58:07.455Z,3.40
2022-10-05T10:00:55.647Z,3.40
2022-10-05T10:03:55.248Z,3.53
2022-10-05T10:06:32.098Z,3.77
2022-10-05T10:09:02.834Z,3.23
2022-10-05T10:11:33.820Z,3.53
2022-10-05T10:14:11.137Z,3.53
2022-10-05T10:16:44.679Z,3.20
2022-10-05T10:19:31.353Z,3.47
2022-10-05T10:22:11.478Z,3.23
2022-10-05T10:24:39.393Z,3.50
2022-10-05T10:27:17.245Z,3.30
2022-10-05T10:29:51.958Z,3.53
2022-10-05T10:32:40.433Z,3.27
2022-10-05T10:35:26.849Z,3.47
2022-10-05T10:37:58.798Z,3.30
2022-10-05T10:40:35.208Z,3.10
2022-10-05T10:43:17.466Z,3.03
2022-10-05T10:45:57.772Z,3.07
2022-10-05T10:48:31.685Z,3.47
2022-10-05T10:50:59.602Z,2.80
2022-10-05T10:53:37.691Z,3.37
2022-10-05T10:56:18.741Z,2.83
2022-10-05T10:59:02.584Z,3.43
2022-10-05T11:01:42.106Z,3.37
2022-10-05T11:04:10.129Z,3.40
2022-10-05T11:07:22.661Z,3.13
2022-10-05T11:09:57.380Z,3.10
2022-10-05T11:12:25.297Z,2.90
2022-10-05T11:15:14.910Z,3.00
2022-10-05T11:17:53.248Z,2.90
2022-10-05T11:20:26.714Z,3.03
2022-10-05T11:22:54.600Z,3.03
2022-10-05T11:25:44.537Z,3.07
2022-10-05T11:28:15.606Z,3.13
2022-10-05T11:31:07.258Z,3.17
2022-10-05T11:33:54.035Z,2.80
2022-10-05T11:36:31.022Z,3.23
2022-10-05T11:39:04.938Z,3.00
2022-10-05T11:41:51.899Z,2.93
2022-10-05T11:44:26.515Z,2.90
2022-10-05T11:47:03.112Z,2.93
2022-10-05T11:49:51.368Z,2.80
2022-10-05T11:52:24.393Z,3.00
2022-10-05T11:55:11.999Z,2.80
2022-10-05T11:57:55.546Z,2.80
2022-10-05T12:00:23.487Z,2.90
2022-10-05T12:02:51.438Z,2.80
2022-10-05T12:05:25.566Z,2.90
2022-10-05T12:08:05.705Z,2.60
2022-10-05T12:10:53.840Z,2.70
2022-10-05T12:13:33.541Z,2.55
2022-10-05T12:16:13.831Z,2.70
2022-10-05T12:18:50.108Z,2.40
2022-10-05T12:21:23.991Z,2.42
2022-10-05T12:23:55.096Z,2.40
2022-10-05T12:26:26.004Z,2.50
2022-10-05T12:29:07.101Z,2.63
2022-10-05T12:31:44.033Z,2.30
2022-10-05T12:34:30.206Z,2.50
2022-10-05T12:37:13.957Z,2.50
2022-10-05T12:40:00.375Z,2.13
2022-10-05T12:42:28.335Z,2.53
2022-10-05T12:45:22.749Z,2.33
2022-10-05T12:47:53.743Z,2.40
2022-10-05T12:50:27.373Z,2.38
2022-10-05T12:53:05.327Z,2.55
2022-10-05T12:55:43.399Z,2.28
2022-10-05T12:58:26.827Z,2.30
2022-10-05T13:01:13.412Z,2.47
2022-10-05T13:03:46.100Z,2.15
2022-10-05T13:06:21.601Z,2.58
2022-10-05T13:08:55.952Z,2.45
2022-10-05T13:11:30.296Z,2.30
2022-10-05T13:14:02.812Z,2.50
2022-10-05T13:16:31.067Z,2.40
2022-10-05T13:19:02.002Z,2.05
2022-10-05T13:21:48.227Z,2.30
2022-10-05T13:24:17.577Z,2.38
2022-10-05T13:26:48.815Z,2.50
2022-10-05T13:29:35.594Z,2.40
2022-10-05T13:32:23.737Z,2.10
2022-10-05T13:35:22.415Z,2.10
2022-10-05T13:37:53.427Z,2.38
2022-10-05T13:40:30.635Z,2.50
2022-10-05T13:43:05.120Z,2.15
2022-10-05T13:45:36.268Z,1.98
2022-10-05T13:48:10.438Z,2.17
2022-10-05T13:50:58.454Z,2.30
2022-10-05T13:53:29.659Z,2.20
2022-10-05T13:56:02.098Z,2.40
2022-10-05T13:58:34.039Z,2.33
2022-10-05T14:01:09.647Z,2.15
2022-10-05T14:03:38.901Z,2.20
2022-10-05T14:06:12.096Z,2.10
2022-10-05T14:08:52.103Z,2.20
2022-10-05T14:11:23.037Z,2.13
2022-10-05T14:13:52.407Z,2.25
2022-10-05T14:16:22.717Z,2.30
2022-10-05T14:19:00.046Z,2.20
2022-10-05T14:21:30.981Z,2.33
2022-10-05T14:24:32.178Z,2.50
2022-10-05T14:27:23.026Z,2.00
2022-10-05T14:30:14.261Z,2.20
2022-10-05T14:32:56.413Z,2.15
2022-10-05T14:35:26.204Z,2.10
2022-10-05T14:37:57.086Z,1.80
2022-10-05T14:40:27.083Z,2.30
2022-10-05T14:42:55.226Z,2.13
2022-10-05T14:45:31.004Z,2.20
2022-10-05T14:48:02.048Z,2.20
2022-10-05T14:50:32.419Z,2.10
2022-10-05T14:53:13.119Z,2.08
2022-10-05T14:55:56.391Z,2.20
2022-10-05T14:58:43.479Z,2.00
2022-10-05T15:01:24.493Z,1.90
2022-10-05T15:03:58.423Z,2.20
2022-10-05T15:06:38.515Z,2.10
2022-10-05T15:09:19.368Z,2.33
2022-10-05T15:11:50.666Z,2.30
2022-10-05T15:14:21.579Z,2.15
2022-10-05T15:16:51.661Z,2.38
2022-10-05T15:19:31.953Z,1.92
2022-10-05T15:22:00.491Z,1.95
2022-10-05T15:24:32.727Z,2.28
2022-10-05T15:27:03.354Z,2.00
2022-10-05T15:29:42.692Z,2.00
2022-10-05T15:32:29.188Z,2.08
2022-10-05T15:35:16.099Z,1.90
2022-10-05T15:37:52.417Z,1.85
2022-10-05T15:40:23.279Z,1.80
2022-10-05T15:42:53.506Z,2.10
2022-10-05T15:45:25.309Z,2.10
2022-10-05T15:48:01.396Z,1.95
2022-10-05T15:50:32.719Z,1.90
2022-10-05T15:53:06.673Z,2.03
2022-10-05T15:55:54.960Z,1.90
2022-10-05T15:58:43.414Z,1.90
2022-10-05T16:01:12.821Z,2.08
2022-10-05T16:03:44.030Z,1.92
2022-10-05T16:06:49.307Z,2.05
2022-10-05T16:09:35.876Z,1.92
2022-10-05T16:12:11.016Z,2.20
2022-10-05T16:14:57.870Z,1.90
2022-10-05T16:17:34.189Z,1.70
2022-10-05T16:20:06.692Z,1.90
2022-10-05T16:22:43.394Z,2.03
2022-10-05T16:25:22.610Z,2.00
2022-10-05T16:28:19.990Z,2.00
2022-10-05T16:31:09.126Z,2.20
2022-10-05T16:33:46.724Z,1.90
2022-10-05T16:36:16.661Z,2.08
2022-10-05T16:38:55.975Z,2.30
2022-10-05T16:41:29.660Z,2.10
2022-10-05T16:43:57.495Z,2.22
2022-10-05T16:46:36.983Z,2.10
2022-10-05T16:49:18.363Z,2.30
2022-10-05T16:52:00.075Z,2.20
2022-10-05T16:54:27.955Z,2.20
2022-10-05T16:56:59.749Z,2.05
2022-10-05T16:59:46.248Z,2.10
2022-10-05T17:02:32.710Z,1.90
2022-10-05T17:05:20.323Z,2.30
2022-10-05T17:08:03.347Z,2.25
2022-10-05T17:10:37.539Z,2.10
2022-10-05T17:13:05.508Z,2.00
2022-10-05T17:15:36.566Z,2.47
2022-10-05T17:18:24.091Z,2.90
2022-10-05T17:21:12.646Z,2.05
2022-10-05T17:23:40.614Z,2.13
2022-10-05T17:26:14.816Z,2.70
2022-10-05T17:28:45.509Z,2.40
2022-10-05T17:31:17.641Z,2.15
2022-10-05T17:34:01.032Z,2.20
2022-10-05T17:36:50.234Z,2.30
2022-10-05T17:39:22.818Z,2.17
2022-10-05T17:41:50.850Z,2.50
2022-10-05T17:44:20.963Z,2.17
2022-10-05T17:46:48.983Z,2.28
2022-10-05T17:49:27.153Z,2.28
2022-10-05T17:52:13.468Z,2.20
2022-10-05T17:55:05.878Z,2.35
2022-10-05T17:57:36.962Z,2.50
2022-10-05T18:00:29.755Z,2.28
2022-10-05T18:02:58.413Z,2.80
2022-10-05T18:05:28.137Z,2.58
2022-10-05T18:08:15.944Z,2.45
2022-10-05T18:11:06.912Z,2.65
2022-10-05T18:13:50.377Z,4.10
2022-10-05T18:16:36.643Z,9.98
2022-10-05T18:19:15.715Z,6.20
2022-10-05T18:22:01.016Z,19.92
2022-10-05T18:24:34.645Z,37.67
2022-10-05T18:27:17.076Z,10.60
2022-10-05T18:30:06.009Z,17.67
2022-10-05T18:32:37.081Z,16.65
2022-10-05T18:35:16.565Z,19.35
2022-10-05T18:37:53.115Z,8.38
2022-10-05T18:40:59.890Z,21.90
2022-10-05T18:43:38.754Z,6.32
2022-10-05T18:46:13.033Z,6.30
2022-10-05T18:48:41.077Z,7.00
2022-10-05T18:51:20.070Z,4.55
2022-10-05T18:54:04.878Z,6.28
2022-10-05T18:56:45.020Z,4.80
2022-10-05T18:59:32.433Z,5.53
2022-10-05T19:02:20.248Z,3.85
2022-10-05T19:04:51.335Z,4.63
2022-10-05T19:07:24.651Z,4.13
2022-10-05T19:09:58.678Z,3.58
2022-10-05T19:12:29.875Z,3.45
2022-10-05T19:15:06.897Z,4.30
2022-10-05T19:17:59.897Z,4.30
2022-10-05T19:20:27.806Z,4.20
2022-10-05T19:23:12.387Z,3.78
2022-10-05T19:25:47.714Z,4.07
2022-10-05T19:28:52.809Z,3.90
2022-10-05T19:31:30.211Z,4.10
2022-10-05T19:34:14.659Z,3.13
2022-10-05T19:36:51.407Z,3.30
2022-10-05T19:39:28.596Z,3.80
2022-10-05T19:42:02.744Z,3.35
2022-10-05T19:44:39.429Z,3.30
2022-10-05T19:47:17.806Z,3.78
2022-10-05T19:49:57.407Z,3.40
2022-10-05T19:52:44.172Z,3.47
2022-10-05T19:55:17.114Z,3.00
2022-10-05T19:57:49.580Z,5.10
2022-10-05T20:00:24.912Z,3.03
2022-10-05T20:02:58.389Z,3.22
2022-10-05T20:05:26.440Z,2.92
2022-10-05T20:07:54.295Z,3.72
2022-10-05T20:10:29.360Z,3.50
2022-10-05T20:13:05.304Z,3.20
2022-10-05T20:15:55.426Z,2.90
2022-10-05T20:18:55.571Z,3.30
2022-10-05T20:22:01.636Z,3.00
2022-10-05T20:24:32.141Z,3.13
2022-10-05T20:27:08.753Z,3.00
2022-10-05T20:29:41.746Z,3.03
2022-10-05T20:32:13.746Z,2.92
2022-10-05T20:34:45.491Z,3.13
2022-10-05T20:37:17.104Z,2.85
2022-10-05T20:39:45.110Z,2.60
2022-10-05T20:42:13.112Z,3.10
2022-10-05T20:44:41.352Z,3.00
2022-10-05T20:47:10.181Z,2.72
2022-10-05T20:49:39.366Z,2.75
2022-10-05T20:52:09.904Z,2.45
2022-10-05T20:54:38.835Z,2.65
2022-10-05T20:57:07.002Z,2.65
2022-10-05T20:59:35.159Z,2.67
2022-10-05T21:02:04.028Z,2.70
2022-10-05T21:04:40.802Z,2.70
2022-10-05T21:07:09.790Z,2.67
2022-10-05T21:09:39.501Z,2.70
2022-10-05T21:12:07.443Z,2.40
2022-10-05T21:14:36.602Z,2.85
2022-10-05T21:17:05.207Z,2.60
2022-10-05T21:19:38.611Z,2.50
2022-10-05T21:22:07.735Z,2.50
2022-10-05T21:24:36.669Z,2.83
2022-10-05T21:27:05.116Z,2.40
2022-10-05T21:29:34.455Z,2.40
2022-10-05T21:32:02.725Z,2.38
2022-10-05T21:34:30.714Z,2.40
2022-10-05T21:36:58.558Z,2.57
2022-10-05T21:39:27.145Z,2.40
2022-10-05T21:41:55.083Z,2.75
2022-10-05T21:44:22.854Z,2.40
2022-10-05T21:46:50.885Z,2.40
2022-10-05T21:49:19.840Z,2.20
2022-10-05T21:51:48.306Z,2.42
2022-10-05T21:54:17.751Z,2.70
2022-10-05T21:56:47.484Z,2.33
2022-10-05T21:59:17.563Z,2.70
2022-10-05T22:01:46.436Z,2.20
2022-10-05T22:04:15.281Z,2.77
2022-10-05T22:06:43.192Z,2.10
2022-10-05T22:09:11.232Z,2.30
2022-10-05T22:11:39.109Z,2.65
2022-10-05T22:14:06.973Z,2.22
2022-10-05T22:16:37.239Z,2.50
2022-10-05T22:19:06.391Z,2.57
2022-10-05T22:21:38.494Z,2.40
2022-10-05T22:24:06.476Z,2.30
2022-10-05T22:26:35.170Z,2.67
2022-10-05T22:29:03.451Z,2.20
2022-10-05T22:31:31.497Z,2.20
2022-10-05T22:33:59.359Z,2.23
2022-10-05T22:36:27.372Z,2.53
2022-10-05T22:38:55.370Z,2.60
2022-10-05T22:41:23.396Z,2.60
2022-10-05T22:43:52.200Z,2.50
2022-10-05T22:46:20.513Z,2.30
2022-10-05T22:48:48.744Z,2.37
2022-10-05T22:51:16.600Z,2.60
2022-10-05T22:53:44.539Z,2.33
2022-10-05T22:56:13.045Z,2.40
2022-10-05T22:58:41.364Z,2.20
2022-10-05T23:01:10.616Z,2.30
2022-10-05T23:03:38.843Z,2.50
2022-10-05T23:06:09.465Z,2.30
2022-10-05T23:08:38.687Z,2.20
2022-10-05T23:11:11.007Z,2.50
2022-10-05T23:13:39.606Z,2.77
2022-10-05T23:16:15.340Z,2.40
2022-10-05T23:18:43.748Z,2.50
2022-10-05T23:21:12.112Z,2.37
2022-10-05T23:23:40.880Z,2.33
2022-10-05T23:26:09.560Z,2.50
2022-10-05T23:28:37.676Z,2.40
2022-10-05T23:31:06.921Z,2.57
2022-10-05T23:33:35.074Z,2.40
2022-10-05T23:36:07.929Z,2.50
2022-10-05T23:38:36.436Z,2.60
2022-10-05T23:41:04.369Z,2.20
2022-10-05T23:43:33.605Z,2.50
2022-10-05T23:46:01.869Z,2.30
2022-10-05T23:48:30.829Z,2.47
2022-10-05T23:50:59.183Z,2.40
2022-10-05T23:53:27.099Z,2.57
2022-10-05T23:55:55.343Z,2.20
2022-10-05T23:58:23.776Z,2.40
